Portada
METAR-TAF:

METAR-TAF

Aeropuertos :

Wittering, Inglaterra

latitud: 52-37N, longitud: 000-28W, altitud: 84 m

Observación

El informe se hizo hace 51 minutos, a las 02:50 UTC
Viento 6 kt del noreste
Temperatura 12°C
Humedad 82%
Presión 1010 hPa
Visibilidad 10 km o más

METAR: EGXT 030250Z AUTO 04006KT 9999 OVC130/// 12/09 Q1010

Hora: 04:41 (03:41 UTC)

Pronóstico

El informe se hizo hace 14 horas y 8 minutos, a las 13:33 UTC
Pronóstico válido del 02 a las 15 UTC al 02 a las 18 UTC
Viento 8 kt del norte-noroeste
Visibilidad 10 km o más
sin nubes por debajo de 1500 m y sin presencia de cumulonimbus.

TAF: EGXT 021333Z 0215/0218 34008KT CAVOK

Observaciones y pronósticos meteorológicos de más de 4000 aeropuertos (mensajes METAR y TAF).

Los puntos amarillos y rojos representan las estaciones disponibles.

Ponga el ratón en el punto deseado para ver el nombre de la estación.

Haga clic para ver las observaciones y los pronósticos meteorológicos.

Para cambiar el mapa : haga clic en los botones verdes con una cruz de color negro para hacer un zoom, en el botón verde con un guión para alejar o en las flechas verdes para mapas adyacentes.


METAR-TAF: